createdAt,value
2018-10-02T00:01:13.035Z,5.50
2018-10-02T00:03:41.092Z,5.50
2018-10-02T00:06:09.287Z,4.95
2018-10-02T00:08:37.318Z,5.60
2018-10-02T00:11:11.435Z,5.12
2018-10-02T00:13:44.989Z,6.08
2018-10-02T00:16:13.074Z,5.08
2018-10-02T00:18:41.141Z,6.05
2018-10-02T00:21:09.256Z,4.75
2018-10-02T00:23:37.304Z,6.40
2018-10-02T00:26:05.469Z,5.35
2018-10-02T00:28:33.591Z,5.35
2018-10-02T00:31:01.716Z,6.22
2018-10-02T00:33:29.762Z,5.47
2018-10-02T00:35:57.873Z,5.45
2018-10-02T00:38:25.921Z,5.08
2018-10-02T00:40:53.971Z,6.00
2018-10-02T00:43:22.169Z,5.22
2018-10-02T00:45:50.263Z,5.53
2018-10-02T00:48:18.307Z,5.25
2018-10-02T00:50:46.420Z,4.72
2018-10-02T00:53:14.536Z,5.20
2018-10-02T00:55:42.664Z,4.50
2018-10-02T00:58:10.788Z,4.90
2018-10-02T01:00:38.933Z,4.20
2018-10-02T01:03:07.147Z,4.72
2018-10-02T01:05:35.181Z,4.30
2018-10-02T01:08:03.195Z,3.75
2018-10-02T01:10:31.325Z,4.00
2018-10-02T01:12:59.394Z,4.47
2018-10-02T01:15:27.468Z,4.47
2018-10-02T01:17:55.564Z,4.33
2018-10-02T01:20:23.717Z,5.35
2018-10-02T01:22:51.740Z,5.65
2018-10-02T01:25:19.915Z,4.33
2018-10-02T01:27:47.988Z,4.58
2018-10-02T01:30:16.118Z,4.75
2018-10-02T01:32:44.177Z,4.47
2018-10-02T01:35:12.198Z,4.95
2018-10-02T01:37:40.420Z,4.53
2018-10-02T01:40:08.530Z,5.10
2018-10-02T01:42:36.646Z,4.72
2018-10-02T01:45:05.480Z,4.70
2018-10-02T01:47:33.494Z,5.30
2018-10-02T01:50:01.576Z,5.42
2018-10-02T01:52:29.632Z,5.25
2018-10-02T01:54:57.666Z,5.20
2018-10-02T01:57:25.692Z,5.55
2018-10-02T01:59:53.723Z,5.05
2018-10-02T02:02:21.838Z,4.30
2018-10-02T02:04:49.863Z,6.28
2018-10-02T02:07:17.996Z,4.95
2018-10-02T02:09:46.036Z,5.85
2018-10-02T02:12:14.056Z,5.35
2018-10-02T02:14:42.113Z,5.53
2018-10-02T02:17:10.160Z,5.90
2018-10-02T02:19:38.174Z,4.87
2018-10-02T02:22:06.379Z,4.95
2018-10-02T02:24:34.427Z,6.30
2018-10-02T02:27:02.467Z,5.70
2018-10-02T02:29:30.514Z,5.45
2018-10-02T02:31:58.648Z,5.17
2018-10-02T02:34:26.694Z,4.80
2018-10-02T02:36:54.941Z,4.60
2018-10-02T02:39:23.088Z,5.12
2018-10-02T02:41:51.126Z,4.47
2018-10-02T02:44:19.210Z,4.90
2018-10-02T02:46:47.258Z,4.55
2018-10-02T02:49:21.174Z,4.60
2018-10-02T02:51:49.261Z,5.45
2018-10-02T02:54:17.358Z,5.55
2018-10-02T02:56:45.407Z,5.60
2018-10-02T02:59:13.585Z,4.50
2018-10-02T03:01:41.756Z,4.67
2018-10-02T03:04:09.794Z,5.20
2018-10-02T03:06:37.871Z,3.50
2018-10-02T03:09:07.981Z,3.72
2018-10-02T03:11:36.025Z,4.55
2018-10-02T03:14:04.114Z,5.37
2018-10-02T03:16:32.141Z,4.60
2018-10-02T03:19:00.257Z,4.25
2018-10-02T03:21:28.398Z,3.87
2018-10-02T03:23:56.454Z,4.03
2018-10-02T03:26:24.560Z,4.20
2018-10-02T03:28:52.631Z,5.87
2018-10-02T03:31:20.719Z,4.92
2018-10-02T03:33:48.788Z,5.15
2018-10-02T03:36:16.819Z,4.78
2018-10-02T03:38:44.807Z,5.35
2018-10-02T03:41:12.879Z,4.97
2018-10-02T03:43:41.100Z,7.00
2018-10-02T03:46:09.193Z,6.85
2018-10-02T03:48:37.223Z,5.92
2018-10-02T03:51:05.347Z,5.45
2018-10-02T03:53:33.446Z,4.17
2018-10-02T03:56:01.482Z,4.83
2018-10-02T03:58:29.628Z,4.40
2018-10-02T04:00:57.726Z,4.70
2018-10-02T04:03:25.760Z,4.45
2018-10-02T04:05:53.848Z,4.45
2018-10-02T04:08:22.053Z,4.15
2018-10-02T04:10:51.044Z,3.92
2018-10-02T04:13:19.191Z,3.77
2018-10-02T04:15:47.187Z,3.75
2018-10-02T04:18:15.236Z,3.87
2018-10-02T04:20:43.339Z,3.70
2018-10-02T04:23:11.412Z,3.65
2018-10-02T04:25:39.453Z,3.95
2018-10-02T04:28:07.575Z,3.65
2018-10-02T04:30:35.680Z,3.42
2018-10-02T04:33:03.767Z,3.40
2018-10-02T04:35:31.884Z,3.35
2018-10-02T04:38:00.000Z,3.67
2018-10-02T04:40:28.155Z,2.92
2018-10-02T04:42:56.328Z,3.90
2018-10-02T04:45:24.379Z,4.10
2018-10-02T04:47:53.523Z,3.70
2018-10-02T04:50:22.957Z,3.25
2018-10-02T04:52:51.110Z,3.12
2018-10-02T04:55:19.246Z,2.95
2018-10-02T04:57:47.269Z,2.85
2018-10-02T05:00:16.043Z,3.67
2018-10-02T05:02:44.096Z,3.55
2018-10-02T05:05:12.269Z,3.33
2018-10-02T05:07:40.377Z,2.95
2018-10-02T05:10:08.502Z,3.30
2018-10-02T05:12:36.630Z,2.80
2018-10-02T05:15:04.817Z,4.40
2018-10-02T05:17:32.897Z,3.12
2018-10-02T05:20:00.962Z,3.65
2018-10-02T05:22:29.116Z,3.10
2018-10-02T05:24:57.148Z,3.10
2018-10-02T05:27:25.288Z,3.10
2018-10-02T05:29:53.324Z,3.95
2018-10-02T05:32:21.402Z,3.15
2018-10-02T05:34:49.509Z,3.10
2018-10-02T05:37:17.671Z,4.00
2018-10-02T05:39:45.734Z,2.95
2018-10-02T05:42:13.888Z,5.35
2018-10-02T05:44:41.976Z,2.77
2018-10-02T05:47:10.067Z,3.45
2018-10-02T05:49:38.285Z,2.87
2018-10-02T05:52:06.457Z,3.45
2018-10-02T05:54:34.587Z,3.40
2018-10-02T05:57:02.711Z,3.35
2018-10-02T05:59:30.854Z,3.27
2018-10-02T06:01:59.512Z,3.42
2018-10-02T06:04:27.741Z,3.70
2018-10-02T06:06:55.852Z,2.80
2018-10-02T06:09:24.051Z,2.92
2018-10-02T06:11:52.283Z,2.30
2018-10-02T06:14:20.455Z,3.42
2018-10-02T06:16:48.688Z,2.15
2018-10-02T06:19:17.555Z,2.50
2018-10-02T06:21:45.707Z,2.87
2018-10-02T06:24:13.975Z,2.65
2018-10-02T06:26:42.139Z,2.50
2018-10-02T06:29:10.429Z,1.72
2018-10-02T06:31:38.606Z,2.33
2018-10-02T06:34:06.766Z,2.50
2018-10-02T06:36:34.960Z,2.70
2018-10-02T06:39:04.172Z,2.55
2018-10-02T06:41:32.464Z,3.47
2018-10-02T06:44:00.592Z,2.70
2018-10-02T06:46:28.735Z,2.55
2018-10-02T06:48:56.945Z,3.02
2018-10-02T06:51:25.332Z,2.37
2018-10-02T06:53:53.390Z,3.00
2018-10-02T06:56:21.607Z,2.30
2018-10-02T06:58:49.698Z,2.70
2018-10-02T07:01:17.871Z,2.60
2018-10-02T07:03:46.291Z,3.35
2018-10-02T07:06:14.443Z,2.80
2018-10-02T07:08:42.676Z,3.20
2018-10-02T07:11:10.802Z,2.92
2018-10-02T07:13:39.023Z,2.40
2018-10-02T07:16:07.331Z,2.70
2018-10-02T07:18:35.531Z,3.05
2018-10-02T07:21:04.021Z,2.90
2018-10-02T07:23:32.148Z,3.05
2018-10-02T07:26:00.233Z,3.30
2018-10-02T07:28:28.572Z,2.40
2018-10-02T07:30:56.741Z,3.25
2018-10-02T07:33:25.008Z,3.25
2018-10-02T07:35:53.148Z,3.10
2018-10-02T07:38:21.331Z,3.27
2018-10-02T07:40:49.535Z,3.00
2018-10-02T07:43:17.766Z,4.20
2018-10-02T07:45:45.935Z,4.15
2018-10-02T07:48:14.187Z,2.60
2018-10-02T07:50:42.449Z,2.62
2018-10-02T07:53:10.685Z,3.35
2018-10-02T07:55:38.853Z,3.30
2018-10-02T07:58:06.936Z,5.15
2018-10-02T08:00:35.290Z,3.55
2018-10-02T08:03:03.499Z,3.75
2018-10-02T08:05:31.695Z,2.55
2018-10-02T08:07:59.877Z,3.85
2018-10-02T08:10:28.180Z,3.10
2018-10-02T08:12:56.748Z,3.40
2018-10-02T08:15:25.588Z,4.70
2018-10-02T08:17:53.835Z,3.22
2018-10-02T08:20:22.098Z,2.90
2018-10-02T08:22:50.390Z,3.70
2018-10-02T08:25:18.552Z,3.72
2018-10-02T08:27:46.883Z,3.42
2018-10-02T08:30:15.261Z,2.62
2018-10-02T08:32:43.443Z,3.00
2018-10-02T08:35:11.685Z,3.90
2018-10-02T08:37:40.021Z,4.08
2018-10-02T08:40:08.585Z,4.40
2018-10-02T08:42:36.792Z,4.40
2018-10-02T08:45:05.230Z,4.10
2018-10-02T08:47:33.466Z,3.58
2018-10-02T08:50:01.709Z,4.00
2018-10-02T08:52:29.877Z,4.08
2018-10-02T08:54:58.041Z,4.30
2018-10-02T08:57:26.234Z,2.83
2018-10-02T08:59:54.366Z,3.85
2018-10-02T09:02:22.802Z,3.85
2018-10-02T09:04:51.204Z,4.12
2018-10-02T09:07:19.579Z,4.22
2018-10-02T09:09:47.753Z,4.22
2018-10-02T09:12:15.988Z,4.03
2018-10-02T09:14:44.273Z,4.75
2018-10-02T09:17:12.441Z,5.40
2018-10-02T09:19:41.528Z,3.65
2018-10-02T09:22:09.719Z,4.42
2018-10-02T09:24:39.576Z,4.15
2018-10-02T09:27:07.757Z,4.97
2018-10-02T09:29:41.634Z,5.00
2018-10-02T09:32:15.442Z,4.90
2018-10-02T09:34:49.220Z,2.92
2018-10-02T09:37:23.056Z,5.40
2018-10-02T09:39:57.013Z,4.50
2018-10-02T09:42:31.038Z,4.22
2018-10-02T09:44:59.208Z,5.55
2018-10-02T09:47:27.404Z,5.65
2018-10-02T09:49:55.682Z,5.35
2018-10-02T09:52:23.900Z,4.72
2018-10-02T09:54:52.238Z,5.05
2018-10-02T09:57:21.228Z,4.33
2018-10-02T09:59:49.520Z,4.67
2018-10-02T10:02:23.456Z,4.85
2018-10-02T10:04:51.694Z,4.70
2018-10-02T10:07:20.037Z,4.37
2018-10-02T10:09:48.191Z,4.70
2018-10-02T10:12:16.456Z,4.37
2018-10-02T10:14:44.662Z,3.60
2018-10-02T10:17:12.975Z,4.35
2018-10-02T10:19:41.045Z,6.17
2018-10-02T10:22:09.271Z,4.65
2018-10-02T10:24:37.546Z,3.85
2018-10-02T10:27:06.004Z,3.98
2018-10-02T10:29:34.350Z,3.25
2018-10-02T10:32:02.623Z,4.37
2018-10-02T10:34:30.865Z,5.10
2018-10-02T10:36:59.375Z,3.52
2018-10-02T10:39:27.622Z,3.85
2018-10-02T10:41:55.962Z,3.20
2018-10-02T10:44:24.312Z,2.70
2018-10-02T10:46:52.466Z,2.98
2018-10-02T10:49:47.130Z,3.00
2018-10-02T10:58:09.664Z,2.33
2018-10-02T11:00:37.858Z,3.05
2018-10-02T11:03:06.220Z,3.58
2018-10-02T11:05:34.449Z,3.10
2018-10-02T11:08:02.831Z,3.08
2018-10-02T11:10:31.105Z,3.30
2018-10-02T11:12:59.344Z,2.65
2018-10-02T11:15:29.465Z,3.12
2018-10-02T11:18:01.198Z,2.90
2018-10-02T11:20:32.294Z,2.55
2018-10-02T11:23:00.596Z,2.55
2018-10-02T11:25:28.928Z,2.47
2018-10-02T11:27:57.005Z,2.98
2018-10-02T11:30:25.272Z,2.95
2018-10-02T11:32:53.466Z,2.62
2018-10-02T11:35:21.905Z,2.55
2018-10-02T11:43:44.861Z,3.35
2018-10-02T11:46:13.290Z,2.55
2018-10-02T11:48:42.207Z,2.77
2018-10-02T11:51:10.501Z,2.27
2018-10-02T11:53:40.400Z,3.17
2018-10-02T11:56:08.751Z,2.55
2018-10-02T11:58:37.044Z,2.92
2018-10-02T12:01:05.417Z,3.02
2018-10-02T12:03:33.568Z,3.05
2018-10-02T12:06:01.760Z,3.60
2018-10-02T12:08:29.997Z,2.92
2018-10-02T12:10:58.208Z,3.85
2018-10-02T12:13:26.607Z,3.60
2018-10-02T12:15:54.891Z,3.98
2018-10-02T12:18:23.180Z,3.62
2018-10-02T12:20:51.320Z,3.80
2018-10-02T12:23:19.530Z,3.15
2018-10-02T12:25:47.690Z,4.00
2018-10-02T12:28:15.947Z,5.85
2018-10-02T12:30:44.133Z,3.77
2018-10-02T12:33:12.449Z,3.80
2018-10-02T12:35:40.708Z,3.90
2018-10-02T12:38:08.937Z,3.25
2018-10-02T12:40:37.140Z,3.22
2018-10-02T12:43:05.351Z,3.70
2018-10-02T12:45:33.625Z,3.50
2018-10-02T12:48:01.904Z,3.85
2018-10-02T12:50:30.103Z,3.87
2018-10-02T12:52:58.428Z,3.90
2018-10-02T12:55:26.623Z,3.85
2018-10-02T12:57:54.906Z,4.05
2018-10-02T13:00:23.157Z,4.30
2018-10-02T13:02:51.394Z,4.00
2018-10-02T13:05:19.747Z,4.17
2018-10-02T13:07:48.248Z,3.87
2018-10-02T13:10:16.463Z,4.10
2018-10-02T13:12:44.672Z,3.15
2018-10-02T13:15:12.863Z,3.52
2018-10-02T13:17:41.090Z,3.83
2018-10-02T13:20:09.345Z,3.05
2018-10-02T13:22:37.602Z,4.10
2018-10-02T13:25:05.899Z,4.40
2018-10-02T13:27:34.152Z,4.03
2018-10-02T13:30:02.546Z,3.60
2018-10-02T13:32:30.836Z,4.90
2018-10-02T13:34:59.038Z,4.50
2018-10-02T13:37:27.513Z,4.00
2018-10-02T13:39:55.763Z,3.58
2018-10-02T13:42:24.150Z,4.45
2018-10-02T13:44:52.420Z,4.75
2018-10-02T13:47:20.650Z,4.25
2018-10-02T13:49:49.043Z,3.55
2018-10-02T13:52:17.366Z,5.00
2018-10-02T13:54:45.616Z,4.87
2018-10-02T13:57:13.810Z,4.55
2018-10-02T13:59:42.050Z,4.80
2018-10-02T14:02:10.361Z,4.20
2018-10-02T14:04:38.553Z,4.40
2018-10-02T14:07:06.936Z,5.12
2018-10-02T14:09:35.276Z,4.20
2018-10-02T14:12:03.554Z,5.90
2018-10-02T14:14:31.907Z,4.47
2018-10-02T14:17:00.185Z,4.85
2018-10-02T14:19:28.436Z,4.22
2018-10-02T14:21:57.607Z,5.35
2018-10-02T14:24:25.888Z,5.50
2018-10-02T14:26:54.196Z,5.75
2018-10-02T14:29:22.514Z,4.70
2018-10-02T14:31:50.869Z,4.85
2018-10-02T14:34:19.096Z,5.42
2018-10-02T14:36:47.537Z,6.42
2018-10-02T14:39:15.835Z,5.62
2018-10-02T14:41:44.124Z,6.72
2018-10-02T14:44:12.422Z,6.67
2018-10-02T14:46:40.764Z,5.85
2018-10-02T14:49:09.167Z,5.60
2018-10-02T14:51:37.518Z,7.67
2018-10-02T14:54:06.145Z,8.00
2018-10-02T14:56:34.435Z,7.87
2018-10-02T14:59:02.767Z,6.80
2018-10-02T15:01:31.046Z,8.55
2018-10-02T15:03:59.286Z,7.20
2018-10-02T15:06:27.611Z,6.83
2018-10-02T15:08:56.003Z,8.03
2018-10-02T15:11:24.554Z,6.83
2018-10-02T15:13:53.085Z,6.62
2018-10-02T15:16:21.519Z,8.33
2018-10-02T15:18:49.806Z,7.40
2018-10-02T15:21:18.101Z,7.50
2018-10-02T15:23:46.419Z,7.20
2018-10-02T15:26:14.789Z,6.00
2018-10-02T15:28:43.102Z,6.60
2018-10-02T15:31:11.303Z,6.50
2018-10-02T15:33:39.553Z,7.10
2018-10-02T15:36:07.914Z,6.60
2018-10-02T15:38:36.376Z,6.60
2018-10-02T15:41:04.777Z,6.50
2018-10-02T15:43:34.163Z,5.28
2018-10-02T15:46:02.570Z,5.62
2018-10-02T15:48:30.969Z,5.87
2018-10-02T15:50:59.296Z,5.10
2018-10-02T15:53:27.682Z,6.10
2018-10-02T15:55:56.067Z,5.83
2018-10-02T15:58:24.344Z,5.08
2018-10-02T16:00:53.795Z,4.70
2018-10-02T16:03:22.227Z,4.92
2018-10-02T16:05:50.973Z,3.98
2018-10-02T16:08:19.395Z,5.12
2018-10-02T16:10:47.861Z,4.55
2018-10-02T16:13:16.073Z,4.22
2018-10-02T16:15:44.777Z,3.60
2018-10-02T16:18:13.756Z,4.03
2018-10-02T16:20:42.044Z,3.75
2018-10-02T16:23:10.432Z,4.00
2018-10-02T16:25:38.788Z,4.25
2018-10-02T16:28:07.174Z,3.27
2018-10-02T16:30:35.776Z,3.25
2018-10-02T16:33:04.164Z,3.30
2018-10-02T16:35:32.501Z,2.65
2018-10-02T16:38:00.976Z,3.00
2018-10-02T16:40:29.332Z,3.30
2018-10-02T16:42:57.699Z,3.30
2018-10-02T16:45:26.339Z,2.40
2018-10-02T16:47:54.715Z,2.40
2018-10-02T16:50:22.946Z,2.00
2018-10-02T16:52:51.395Z,3.33
2018-10-02T16:55:20.074Z,2.00
2018-10-02T16:57:48.431Z,2.08
2018-10-02T17:00:16.812Z,1.87
2018-10-02T17:02:45.195Z,1.70
2018-10-02T17:05:13.525Z,1.55
2018-10-02T17:07:41.791Z,1.30
2018-10-02T17:10:10.235Z,1.30
2018-10-02T17:12:38.645Z,1.95
2018-10-02T17:15:07.364Z,1.90
2018-10-02T17:17:35.739Z,1.50
2018-10-02T17:20:04.424Z,1.52
2018-10-02T17:22:32.804Z,1.75
2018-10-02T17:25:01.132Z,1.62
2018-10-02T17:27:29.460Z,1.40
2018-10-02T17:29:57.765Z,1.50
2018-10-02T17:32:26.245Z,1.57
2018-10-02T17:34:54.693Z,1.47
2018-10-02T17:37:23.264Z,1.90
2018-10-02T17:39:51.698Z,1.85
2018-10-02T17:42:20.004Z,1.70
2018-10-02T17:44:48.371Z,1.20
2018-10-02T17:47:16.681Z,1.10
2018-10-02T17:49:45.020Z,1.60
2018-10-02T17:52:13.706Z,1.30
2018-10-02T17:54:42.161Z,1.02
2018-10-02T17:57:10.510Z,1.50
2018-10-02T17:59:38.935Z,1.50
2018-10-02T18:02:07.375Z,1.50
2018-10-02T18:04:35.893Z,1.20
2018-10-02T18:07:04.379Z,1.40
2018-10-02T18:09:32.701Z,1.40
2018-10-02T18:12:01.177Z,1.17
2018-10-02T18:14:29.601Z,1.20
2018-10-02T18:16:57.919Z,1.30
2018-10-02T18:19:26.268Z,1.53
2018-10-02T18:21:54.649Z,1.50
2018-10-02T18:24:23.023Z,1.27
2018-10-02T18:26:51.471Z,1.80
2018-10-02T18:29:19.866Z,1.60
2018-10-02T18:31:48.264Z,2.10
2018-10-02T18:34:16.611Z,1.70
2018-10-02T18:36:45.324Z,2.10
2018-10-02T18:39:13.740Z,1.70
2018-10-02T18:41:42.109Z,2.00
2018-10-02T18:44:10.730Z,1.90
2018-10-02T18:46:39.294Z,1.50
2018-10-02T18:49:07.836Z,1.70
2018-10-02T18:51:36.193Z,2.10
2018-10-02T18:54:04.533Z,1.93
2018-10-02T18:56:32.942Z,2.00
2018-10-02T18:59:01.309Z,2.30
2018-10-02T19:01:29.701Z,1.90
2018-10-02T19:03:58.148Z,2.60
2018-10-02T19:06:26.488Z,2.40
2018-10-02T19:09:00.624Z,3.40
2018-10-02T19:11:34.649Z,2.60
2018-10-02T19:14:03.214Z,2.20
2018-10-02T19:16:33.275Z,2.50
2018-10-02T19:19:02.027Z,2.72
2018-10-02T19:21:30.710Z,2.30
2018-10-02T19:23:59.329Z,2.90
2018-10-02T19:26:29.091Z,2.62
2018-10-02T19:28:57.677Z,2.73
2018-10-02T19:31:31.719Z,2.72
2018-10-02T19:34:00.479Z,3.13
2018-10-02T19:36:29.011Z,2.50
2018-10-02T19:39:01.662Z,2.53
2018-10-02T19:41:30.440Z,2.47
2018-10-02T19:43:58.903Z,2.90
2018-10-02T19:46:32.854Z,2.33
2018-10-02T19:49:01.313Z,2.20
2018-10-02T19:51:35.225Z,2.97
2018-10-02T19:54:03.783Z,3.08
2018-10-02T19:56:32.292Z,2.73
2018-10-02T19:59:00.700Z,3.20
2018-10-02T20:01:29.096Z,2.40
2018-10-02T20:03:57.475Z,2.93
2018-10-02T20:06:25.883Z,3.20
2018-10-02T20:08:54.315Z,2.50
2018-10-02T20:11:22.683Z,3.35
2018-10-02T20:13:51.361Z,2.80
2018-10-02T20:16:19.777Z,3.22
2018-10-02T20:18:48.398Z,3.00
2018-10-02T20:21:16.908Z,3.33
2018-10-02T20:23:45.203Z,3.17
2018-10-02T20:26:13.433Z,3.37
2018-10-02T20:28:43.960Z,3.13
2018-10-02T20:31:12.271Z,3.07
2018-10-02T20:33:40.773Z,3.20
2018-10-02T20:36:09.174Z,3.40
2018-10-02T20:38:37.808Z,3.33
2018-10-02T20:41:07.808Z,3.10
2018-10-02T20:43:36.609Z,3.13
2018-10-02T20:46:04.834Z,3.70
2018-10-02T20:48:33.059Z,3.70
2018-10-02T20:51:01.484Z,3.45
2018-10-02T20:53:31.893Z,3.87
2018-10-02T20:56:00.281Z,3.80
2018-10-02T20:58:28.585Z,3.72
2018-10-02T21:00:56.808Z,3.70
2018-10-02T21:03:25.061Z,3.72
2018-10-02T21:05:53.401Z,4.13
2018-10-02T21:08:23.186Z,3.90
2018-10-02T21:10:51.529Z,4.03
2018-10-02T21:13:19.827Z,4.27
2018-10-02T21:15:48.266Z,3.72
2018-10-02T21:18:16.824Z,4.27
2018-10-02T21:20:45.214Z,3.80
2018-10-02T21:23:13.767Z,4.37
2018-10-02T21:25:42.260Z,4.73
2018-10-02T21:28:10.731Z,4.60
2018-10-02T21:30:39.113Z,4.60
2018-10-02T21:33:07.432Z,4.83
2018-10-02T21:35:35.674Z,4.92
2018-10-02T21:38:04.481Z,5.90
2018-10-02T21:40:32.996Z,5.87
2018-10-02T21:43:01.515Z,5.70
2018-10-02T21:45:29.843Z,6.53
2018-10-02T21:47:58.233Z,6.10
2018-10-02T21:50:26.527Z,5.80
2018-10-02T21:52:54.929Z,5.73
2018-10-02T21:55:23.181Z,7.80
2018-10-02T21:57:51.541Z,7.40
2018-10-02T22:00:19.885Z,6.93
2018-10-02T22:02:48.141Z,6.17
2018-10-02T22:05:16.651Z,6.40
2018-10-02T22:07:44.912Z,6.37
2018-10-02T22:10:13.172Z,6.60
2018-10-02T22:12:41.447Z,7.30
2018-10-02T22:15:09.744Z,6.30
2018-10-02T22:17:38.020Z,6.10
2018-10-02T22:20:06.387Z,6.97
2018-10-02T22:22:34.630Z,6.30
2018-10-02T22:25:02.957Z,6.27
2018-10-02T22:27:31.238Z,7.23
2018-10-02T22:29:59.488Z,6.50
2018-10-02T22:32:27.866Z,6.50
2018-10-02T22:34:56.163Z,7.20
2018-10-02T22:37:24.634Z,6.27
2018-10-02T22:39:52.923Z,6.97
2018-10-02T22:42:21.230Z,7.40
2018-10-02T22:44:49.461Z,7.07
2018-10-02T22:47:17.702Z,7.30
2018-10-02T22:49:45.978Z,7.07
2018-10-02T22:52:14.302Z,7.20
2018-10-02T22:54:42.974Z,6.90
2018-10-02T22:57:11.377Z,7.30
2018-10-02T22:59:39.640Z,6.30
2018-10-02T23:02:07.835Z,6.20
2018-10-02T23:04:36.047Z,7.00
2018-10-02T23:07:04.452Z,5.92
2018-10-02T23:09:33.531Z,5.73
2018-10-02T23:12:01.960Z,6.20
2018-10-02T23:14:30.277Z,6.25
2018-10-02T23:16:58.520Z,6.00
2018-10-02T23:19:26.857Z,6.80
2018-10-02T23:21:56.424Z,6.43
2018-10-02T23:24:24.669Z,6.80
2018-10-02T23:26:52.898Z,5.60
2018-10-02T23:29:21.708Z,5.93
2018-10-02T23:31:49.981Z,6.20
2018-10-02T23:34:18.187Z,5.40
2018-10-02T23:36:46.572Z,6.80
2018-10-02T23:39:14.808Z,6.80
2018-10-02T23:41:43.015Z,5.70
2018-10-02T23:44:11.523Z,5.13
2018-10-02T23:46:39.723Z,5.37
2018-10-02T23:49:07.856Z,5.80
2018-10-02T23:51:36.245Z,5.57
2018-10-02T23:54:04.461Z,6.00
2018-10-02T23:56:32.664Z,5.50
2018-10-02T23:59:00.886Z,6.17
